createdAt,value
2022-10-20T00:02:49.602Z,8.55
2022-10-20T00:05:53.088Z,8.46
2022-10-20T00:08:57.268Z,8.40
2022-10-20T00:12:00.227Z,8.46
2022-10-20T00:15:02.928Z,8.38
2022-10-20T00:18:05.743Z,8.34
2022-10-20T00:21:11.040Z,8.42
2022-10-20T00:24:13.968Z,8.34
2022-10-20T00:27:16.503Z,8.31
2022-10-20T00:30:21.465Z,8.37
2022-10-20T00:33:26.692Z,8.36
2022-10-20T00:36:29.586Z,8.27
2022-10-20T00:39:32.129Z,8.26
2022-10-20T00:42:34.985Z,8.40
2022-10-20T00:45:37.732Z,8.28
2022-10-20T00:48:43.056Z,8.44
2022-10-20T00:51:45.751Z,8.44
2022-10-20T00:54:49.832Z,8.42
2022-10-20T00:57:54.320Z,8.37
2022-10-20T01:01:05.069Z,8.35
2022-10-20T01:04:08.192Z,8.30
2022-10-20T01:07:11.000Z,8.24
2022-10-20T01:10:14.271Z,8.19
2022-10-20T01:13:39.588Z,8.08
2022-10-20T01:17:00.452Z,8.13
2022-10-20T01:20:28.266Z,8.02
2022-10-20T01:23:54.005Z,8.06
2022-10-20T01:27:18.575Z,8.14
2022-10-20T01:30:25.445Z,8.10
2022-10-20T01:33:42.059Z,8.03
2022-10-20T01:37:08.343Z,7.92
2022-10-20T01:40:28.887Z,8.06
2022-10-20T01:43:36.070Z,8.12
2022-10-20T01:46:41.843Z,8.03
2022-10-20T01:49:47.581Z,7.87
2022-10-20T01:52:54.767Z,7.84
2022-10-20T01:55:59.988Z,7.87
2022-10-20T01:59:41.811Z,7.85
2022-10-20T02:02:55.654Z,7.84
2022-10-20T02:06:17.051Z,7.80
2022-10-20T02:09:41.490Z,7.87
2022-10-20T02:12:49.085Z,7.68
2022-10-20T02:15:55.900Z,7.72
2022-10-20T02:22:09.890Z,7.40
2022-10-20T02:25:13.706Z,7.43
2022-10-20T02:28:17.447Z,7.45
2022-10-20T02:31:21.227Z,7.43
2022-10-20T02:34:27.713Z,7.36
2022-10-20T02:37:30.421Z,7.17
2022-10-20T02:40:33.292Z,7.17
2022-10-20T02:43:36.057Z,7.18
2022-10-20T02:46:38.586Z,7.15
2022-10-20T02:49:41.438Z,7.26
2022-10-20T02:52:44.153Z,7.14
2022-10-20T02:55:46.936Z,7.14
2022-10-20T02:58:49.822Z,7.15
2022-10-20T03:01:52.720Z,7.19
2022-10-20T03:04:55.247Z,7.22
2022-10-20T03:07:58.042Z,7.16
2022-10-20T03:11:00.806Z,7.12
2022-10-20T03:14:03.806Z,7.03
2022-10-20T03:17:06.443Z,6.85
2022-10-20T03:20:10.659Z,6.85
2022-10-20T03:23:17.744Z,6.73
2022-10-20T03:26:22.812Z,6.70
2022-10-20T03:29:25.239Z,6.61
2022-10-20T03:32:28.263Z,6.54
2022-10-20T03:35:30.738Z,6.48
2022-10-20T03:38:36.420Z,6.46
2022-10-20T03:41:43.846Z,6.42
2022-10-20T03:44:49.090Z,6.32
2022-10-20T03:47:51.676Z,6.24
2022-10-20T03:50:57.119Z,6.29
2022-10-20T03:53:59.612Z,6.35
2022-10-20T03:57:06.837Z,6.30
2022-10-20T04:00:15.531Z,6.25
2022-10-20T04:03:22.436Z,6.32
2022-10-20T04:06:25.042Z,6.37
2022-10-20T04:09:27.910Z,6.38
2022-10-20T04:12:30.367Z,6.33
2022-10-20T04:15:33.261Z,6.22
2022-10-20T04:18:36.475Z,6.19
2022-10-20T04:21:39.463Z,6.13
2022-10-20T04:24:42.637Z,6.10
2022-10-20T04:27:45.572Z,6.13
2022-10-20T04:30:53.499Z,6.47
2022-10-20T04:33:56.717Z,6.74
2022-10-20T04:36:59.441Z,6.91
2022-10-20T04:40:03.477Z,7.08
2022-10-20T04:43:05.945Z,7.21
2022-10-20T04:46:09.181Z,7.20
2022-10-20T04:49:11.827Z,7.25
2022-10-20T04:52:15.708Z,7.25
2022-10-20T04:55:18.693Z,7.17
2022-10-20T04:58:21.971Z,7.19
2022-10-20T05:01:27.432Z,6.98
2022-10-20T05:04:30.935Z,7.03
2022-10-20T05:07:33.742Z,7.02
2022-10-20T05:10:43.939Z,7.02
2022-10-20T05:13:46.616Z,7.00
2022-10-20T05:16:50.130Z,7.00
2022-10-20T05:19:53.094Z,7.04
2022-10-20T05:22:56.064Z,7.00
2022-10-20T05:26:03.078Z,6.91
2022-10-20T05:29:08.575Z,6.82
2022-10-20T05:32:11.415Z,6.76
2022-10-20T05:35:20.916Z,7.61
2022-10-20T05:38:23.695Z,8.13
2022-10-20T05:41:32.157Z,8.34
2022-10-20T05:44:37.482Z,8.39
2022-10-20T05:47:40.596Z,9.04
2022-10-20T05:53:49.055Z,9.44
2022-10-20T05:56:51.550Z,9.20
2022-10-20T05:59:54.707Z,9.45
2022-10-20T06:02:57.997Z,9.65
2022-10-20T06:06:01.186Z,9.83
2022-10-20T06:09:07.198Z,10.10
2022-10-20T06:12:09.972Z,10.05
2022-10-20T06:15:12.549Z,10.20
2022-10-20T06:18:15.785Z,10.32
2022-10-20T06:21:23.026Z,10.52
2022-10-20T06:24:26.099Z,11.01
2022-10-20T06:27:28.663Z,11.18
2022-10-20T06:30:33.954Z,11.95
2022-10-20T06:33:36.411Z,12.30
2022-10-20T06:36:40.567Z,12.98
2022-10-20T06:39:43.075Z,13.00
2022-10-20T06:42:45.896Z,12.96
2022-10-20T06:46:18.625Z,13.61
2022-10-20T06:49:22.171Z,14.19
2022-10-20T06:52:24.562Z,13.96
2022-10-20T06:55:27.351Z,13.73
2022-10-20T06:58:30.202Z,13.61
2022-10-20T07:01:35.216Z,14.01
2022-10-20T07:04:37.992Z,14.37
2022-10-20T07:07:41.650Z,15.06
2022-10-20T07:10:45.387Z,15.31
2022-10-20T07:13:49.370Z,14.51
2022-10-20T07:16:52.018Z,14.33
2022-10-20T07:19:54.791Z,15.33
2022-10-20T07:22:57.719Z,14.57
2022-10-20T07:26:01.447Z,14.24
2022-10-20T07:29:05.049Z,14.93
2022-10-20T07:32:08.029Z,14.81
2022-10-20T07:35:10.468Z,15.17
2022-10-20T07:38:13.789Z,15.11
2022-10-20T07:41:17.512Z,15.84
2022-10-20T07:44:20.695Z,15.70
2022-10-20T07:47:23.355Z,16.25
2022-10-20T07:50:30.314Z,16.15
2022-10-20T07:53:32.810Z,15.99
2022-10-20T07:56:38.863Z,16.07
2022-10-20T07:59:42.209Z,16.27
2022-10-20T08:02:46.824Z,16.60
2022-10-20T08:05:49.796Z,17.19
2022-10-20T08:08:53.253Z,17.82
2022-10-20T08:11:56.380Z,17.10
2022-10-20T08:18:16.021Z,17.01
2022-10-20T08:21:20.440Z,17.66
2022-10-20T08:24:23.429Z,17.47
2022-10-20T08:27:25.951Z,17.61
2022-10-20T08:30:35.364Z,17.97
2022-10-20T08:33:37.903Z,16.98
2022-10-20T08:36:40.693Z,17.16
2022-10-20T08:39:43.295Z,17.61
2022-10-20T08:42:49.625Z,17.96
2022-10-20T08:45:52.375Z,18.95
2022-10-20T08:48:55.418Z,17.43
2022-10-20T08:51:58.913Z,17.23
2022-10-20T08:55:04.754Z,17.67
2022-10-20T08:58:13.362Z,18.52
2022-10-20T09:01:24.338Z,18.09
2022-10-20T09:07:49.983Z,19.79
2022-10-20T09:10:56.790Z,19.60
2022-10-20T09:13:59.820Z,18.21
2022-10-20T09:17:02.665Z,18.97
2022-10-20T09:20:14.241Z,19.17
2022-10-20T09:23:39.908Z,18.91
2022-10-20T09:26:58.647Z,18.95
2022-10-20T09:30:31.003Z,18.77
2022-10-20T09:33:35.145Z,19.46
2022-10-20T09:36:37.807Z,19.73
2022-10-20T09:39:49.188Z,19.99
2022-10-20T09:42:57.714Z,18.88
2022-10-20T09:46:05.947Z,19.51
2022-10-20T09:49:23.314Z,19.95
2022-10-20T09:52:34.866Z,18.93
2022-10-20T09:55:45.304Z,19.63
2022-10-20T09:58:48.260Z,20.99
2022-10-20T10:02:00.826Z,21.16
2022-10-20T10:05:19.918Z,19.68
2022-10-20T10:08:25.610Z,18.70
2022-10-20T10:11:38.525Z,18.44
2022-10-20T10:14:56.133Z,19.32
2022-10-20T10:18:00.854Z,19.25
2022-10-20T10:21:08.810Z,20.30
2022-10-20T10:24:40.932Z,19.39
2022-10-20T10:27:58.809Z,20.02
2022-10-20T10:31:18.110Z,18.78
2022-10-20T10:34:20.513Z,21.08
2022-10-20T10:37:23.357Z,19.64
2022-10-20T10:40:45.173Z,20.84
2022-10-20T10:44:10.695Z,20.27
2022-10-20T10:47:28.456Z,20.65
2022-10-20T10:50:48.121Z,20.49
2022-10-20T10:54:11.762Z,19.22
2022-10-20T10:57:26.507Z,19.62
2022-10-20T11:00:49.493Z,20.05
2022-10-20T11:04:26.272Z,19.25
2022-10-20T11:07:53.485Z,19.17
2022-10-20T11:11:14.865Z,18.12
2022-10-20T11:14:40.452Z,17.60
2022-10-20T11:17:48.932Z,18.89
2022-10-20T11:21:33.153Z,20.04
2022-10-20T11:24:47.804Z,19.16
2022-10-20T11:27:50.680Z,19.06
2022-10-20T11:30:57.148Z,19.64
2022-10-20T11:34:19.156Z,19.72
2022-10-20T11:37:26.168Z,17.79
2022-10-20T11:40:38.664Z,17.87
2022-10-20T11:43:46.229Z,17.17
2022-10-20T11:47:01.041Z,16.81
2022-10-20T11:50:19.635Z,16.99
2022-10-20T11:53:28.036Z,16.32
2022-10-20T11:56:52.672Z,16.65
2022-10-20T12:00:07.713Z,16.66
2022-10-20T12:03:38.393Z,16.78
2022-10-20T12:07:06.270Z,16.54
2022-10-20T12:10:30.201Z,16.68
2022-10-20T12:13:48.322Z,17.28
2022-10-20T12:17:00.102Z,16.95
2022-10-20T12:20:22.400Z,17.09
2022-10-20T12:23:43.555Z,17.13
2022-10-20T12:27:01.862Z,16.88
2022-10-20T12:30:43.728Z,17.10
2022-10-20T12:33:54.338Z,16.54
2022-10-20T12:37:08.190Z,16.82
2022-10-20T12:40:13.923Z,16.32
2022-10-20T12:43:29.878Z,16.61
2022-10-20T12:46:40.891Z,16.56
2022-10-20T12:49:53.529Z,16.21
2022-10-20T12:53:09.454Z,16.18
2022-10-20T12:56:14.401Z,16.23
2022-10-20T12:59:30.203Z,16.17
2022-10-20T13:02:44.186Z,15.74
2022-10-20T13:05:48.405Z,15.65
2022-10-20T13:09:17.187Z,15.86
2022-10-20T13:12:29.240Z,15.98
2022-10-20T13:15:38.831Z,15.92
2022-10-20T13:18:46.862Z,15.82
2022-10-20T13:21:51.309Z,15.46
2022-10-20T13:24:56.666Z,15.32
2022-10-20T13:28:14.825Z,15.42
2022-10-20T13:32:04.286Z,15.50
2022-10-20T13:35:36.856Z,15.50
2022-10-20T13:39:36.102Z,15.33
2022-10-20T13:43:03.154Z,15.06
2022-10-20T13:46:26.492Z,15.34
2022-10-20T13:50:07.473Z,15.34
2022-10-20T13:53:22.287Z,15.08
2022-10-20T13:56:37.691Z,14.95
2022-10-20T13:59:55.788Z,15.10
2022-10-20T14:03:01.459Z,14.77
2022-10-20T14:06:06.903Z,14.81
2022-10-20T14:09:14.570Z,14.98
2022-10-20T14:12:26.297Z,14.88
2022-10-20T14:15:37.977Z,14.94
2022-10-20T14:18:40.945Z,14.73
2022-10-20T14:21:50.812Z,14.66
2022-10-20T14:24:56.963Z,14.53
2022-10-20T14:28:03.848Z,14.54
2022-10-20T14:31:14.184Z,14.51
2022-10-20T14:34:23.166Z,14.37
2022-10-20T14:37:29.033Z,14.25
2022-10-20T14:40:36.719Z,14.23
2022-10-20T14:43:47.979Z,14.42
2022-10-20T14:46:51.191Z,14.27
2022-10-20T14:49:55.408Z,14.21
2022-10-20T14:52:58.039Z,14.26
2022-10-20T14:56:02.893Z,14.21
2022-10-20T14:59:14.876Z,14.23
2022-10-20T15:02:21.091Z,14.18
2022-10-20T15:05:33.274Z,14.13
2022-10-20T15:08:36.521Z,13.94
2022-10-20T15:11:39.283Z,13.83
2022-10-20T15:14:45.037Z,13.76
2022-10-20T15:17:48.617Z,13.72
2022-10-20T15:20:53.708Z,13.73
2022-10-20T15:23:56.224Z,13.63
2022-10-20T15:26:59.960Z,13.59
2022-10-20T15:30:04.255Z,13.42
2022-10-20T15:33:13.742Z,13.21
2022-10-20T15:36:21.081Z,13.34
2022-10-20T15:39:24.173Z,13.23
2022-10-20T15:42:26.927Z,13.16
2022-10-20T15:45:47.934Z,13.11
2022-10-20T15:48:50.458Z,13.02
2022-10-20T15:52:00.295Z,12.93
2022-10-20T15:55:12.439Z,12.90
2022-10-20T15:58:15.969Z,12.80
2022-10-20T16:01:20.265Z,12.81
2022-10-20T16:04:26.531Z,12.76
2022-10-20T16:07:29.169Z,12.66
2022-10-20T16:10:39.067Z,12.57
2022-10-20T16:14:01.537Z,12.60
2022-10-20T16:17:24.215Z,12.48
2022-10-20T16:20:46.574Z,12.35
2022-10-20T16:24:09.427Z,12.32
2022-10-20T16:27:33.216Z,12.36
2022-10-20T16:31:10.043Z,12.29
2022-10-20T16:34:15.672Z,12.24
2022-10-20T16:37:18.604Z,12.21
2022-10-20T16:40:21.223Z,12.13
2022-10-20T16:43:24.125Z,12.05
2022-10-20T16:46:29.169Z,12.06
2022-10-20T16:49:32.205Z,12.02
2022-10-20T16:52:34.888Z,11.98
2022-10-20T16:55:37.966Z,11.90
2022-10-20T16:58:40.504Z,11.90
2022-10-20T17:01:43.363Z,11.85
2022-10-20T17:04:49.599Z,11.80
2022-10-20T17:07:52.652Z,11.77
2022-10-20T17:10:57.844Z,11.67
2022-10-20T17:14:00.736Z,11.74
2022-10-20T17:17:03.523Z,11.98
2022-10-20T17:20:07.766Z,11.75
2022-10-20T17:23:10.562Z,11.75
2022-10-20T17:26:22.023Z,11.67
2022-10-20T17:29:26.288Z,11.71
2022-10-20T17:32:29.680Z,11.64
2022-10-20T17:35:32.414Z,11.56
2022-10-20T17:38:44.868Z,11.58
2022-10-20T17:41:48.227Z,11.66
2022-10-20T17:44:50.939Z,11.57
2022-10-20T17:47:53.899Z,11.44
2022-10-20T17:51:05.131Z,11.48
2022-10-20T17:54:08.623Z,11.55
2022-10-20T17:57:11.812Z,11.56
2022-10-20T18:00:22.874Z,11.61
2022-10-20T18:03:35.687Z,11.06
2022-10-20T18:06:38.919Z,10.64
2022-10-20T18:09:43.403Z,10.18
2022-10-20T18:12:46.199Z,10.09
2022-10-20T18:15:49.975Z,10.03
2022-10-20T18:18:52.933Z,10.13
2022-10-20T18:21:56.007Z,10.15
2022-10-20T18:24:58.984Z,10.26
2022-10-20T18:28:02.029Z,10.21
2022-10-20T18:31:10.874Z,10.20
2022-10-20T18:34:17.372Z,10.16
2022-10-20T18:37:20.241Z,9.97
2022-10-20T18:40:24.395Z,10.02
2022-10-20T18:43:27.270Z,9.89
2022-10-20T18:46:31.832Z,9.86
2022-10-20T18:49:36.008Z,9.85
2022-10-20T18:52:39.094Z,9.73
2022-10-20T18:55:42.837Z,9.71
2022-10-20T18:58:58.257Z,9.75
2022-10-20T19:02:01.700Z,9.70
2022-10-20T19:05:05.261Z,9.60
2022-10-20T19:08:08.001Z,9.49
2022-10-20T19:11:13.557Z,9.53
2022-10-20T19:14:16.858Z,9.50
2022-10-20T19:17:19.954Z,9.33
2022-10-20T19:20:22.845Z,9.52
2022-10-20T19:23:26.469Z,9.41
2022-10-20T19:26:35.312Z,9.39
2022-10-20T19:29:38.347Z,9.21
2022-10-20T19:32:41.667Z,9.12
2022-10-20T19:35:49.668Z,9.11
2022-10-20T19:38:52.660Z,9.10
2022-10-20T19:41:57.770Z,9.05
2022-10-20T19:45:01.553Z,9.01
2022-10-20T19:48:04.802Z,9.02
2022-10-20T19:51:09.870Z,8.96
2022-10-20T19:54:13.181Z,8.99
2022-10-20T19:57:18.898Z,8.98
2022-10-20T20:00:21.906Z,8.76
2022-10-20T20:03:25.788Z,8.88
2022-10-20T20:06:31.016Z,8.76
2022-10-20T20:09:34.015Z,8.74
2022-10-20T20:12:36.482Z,8.68
2022-10-20T20:15:39.937Z,8.66
2022-10-20T20:18:42.799Z,8.62
2022-10-20T20:21:46.243Z,8.51
2022-10-20T20:24:48.861Z,8.70
2022-10-20T20:27:53.741Z,8.57
2022-10-20T20:31:07.509Z,8.61
2022-10-20T20:34:10.415Z,8.48
2022-10-20T20:37:12.992Z,8.43
2022-10-20T20:40:18.098Z,8.32
2022-10-20T20:43:20.640Z,8.40
2022-10-20T20:46:24.868Z,8.20
2022-10-20T20:49:27.527Z,8.08
2022-10-20T20:52:30.953Z,8.17
2022-10-20T20:55:33.513Z,8.04
2022-10-20T20:58:36.765Z,8.07
2022-10-20T21:01:55.211Z,8.01
2022-10-20T21:05:02.069Z,7.96
2022-10-20T21:08:05.465Z,8.00
2022-10-20T21:11:09.077Z,7.84
2022-10-20T21:14:11.758Z,7.76
2022-10-20T21:17:14.622Z,7.80
2022-10-20T21:20:17.300Z,7.77
2022-10-20T21:23:19.978Z,7.78
2022-10-20T21:26:23.014Z,7.72
2022-10-20T21:29:25.986Z,7.75
2022-10-20T21:32:28.472Z,7.66
2022-10-20T21:35:31.183Z,7.70
2022-10-20T21:38:35.008Z,7.65
2022-10-20T21:41:38.192Z,7.59
2022-10-20T21:44:40.802Z,7.49
2022-10-20T21:47:43.999Z,7.51
2022-10-20T21:50:46.517Z,7.46
2022-10-20T21:53:49.676Z,7.49
2022-10-20T21:56:52.865Z,7.42
2022-10-20T21:59:55.578Z,7.34
2022-10-20T22:02:58.165Z,7.39
2022-10-20T22:06:03.273Z,7.26
2022-10-20T22:09:07.026Z,7.25
2022-10-20T22:12:09.893Z,7.03
2022-10-20T22:15:12.566Z,7.10
2022-10-20T22:18:15.347Z,7.25
2022-10-20T22:21:18.194Z,7.31
2022-10-20T22:24:22.155Z,7.12
2022-10-20T22:27:31.377Z,7.22
2022-10-20T22:30:44.366Z,7.01
2022-10-20T22:33:47.039Z,7.08
2022-10-20T22:36:50.472Z,7.19
2022-10-20T22:39:53.033Z,7.14
2022-10-20T22:42:56.141Z,7.08
2022-10-20T22:45:59.062Z,7.00
2022-10-20T22:49:02.496Z,7.02
2022-10-20T22:52:05.364Z,7.04
2022-10-20T22:55:08.686Z,7.06
2022-10-20T22:58:11.457Z,7.01
2022-10-20T23:01:20.173Z,6.90
2022-10-20T23:04:22.914Z,6.89
2022-10-20T23:07:26.084Z,6.95
2022-10-20T23:10:28.943Z,6.98
2022-10-20T23:13:32.162Z,6.95
2022-10-20T23:16:35.322Z,6.96
2022-10-20T23:19:38.710Z,6.88
2022-10-20T23:22:41.652Z,6.91
2022-10-20T23:25:44.906Z,6.91
2022-10-20T23:28:48.901Z,6.89
2022-10-20T23:31:52.300Z,6.84
2022-10-20T23:34:54.895Z,6.84
2022-10-20T23:37:57.774Z,6.87
2022-10-20T23:41:00.379Z,6.83
2022-10-20T23:44:03.150Z,6.87
2022-10-20T23:47:05.817Z,6.78
2022-10-20T23:50:09.168Z,6.69
2022-10-20T23:53:12.329Z,6.71
2022-10-20T23:56:15.352Z,6.56
2022-10-20T23:59:17.823Z,6.69
